createdAt,value
2023-06-11T00:01:53.726Z,87.71
2023-06-11T00:04:25.850Z,87.75
2023-06-11T00:07:00.895Z,87.65
2023-06-11T00:09:28.051Z,88.78
2023-06-11T00:11:55.147Z,87.69
2023-06-11T00:14:23.574Z,88.27
2023-06-11T00:16:51.146Z,87.86
2023-06-11T00:19:22.024Z,87.09
2023-06-11T00:21:50.309Z,87.80
2023-06-11T00:24:17.839Z,88.10
2023-06-11T00:26:44.790Z,89.01
2023-06-11T00:29:11.730Z,89.23
2023-06-11T00:31:38.414Z,87.45
2023-06-11T00:34:05.174Z,87.60
2023-06-11T00:36:33.704Z,88.00
2023-06-11T00:39:00.415Z,86.86
2023-06-11T00:41:28.068Z,86.57
2023-06-11T00:43:57.217Z,86.84
2023-06-11T00:46:24.770Z,90.65
2023-06-11T00:48:52.332Z,87.08
2023-06-11T00:51:22.118Z,86.65
2023-06-11T00:53:48.784Z,86.69
2023-06-11T00:56:18.830Z,87.62
2023-06-11T00:58:46.921Z,86.55
2023-06-11T01:01:18.379Z,86.54
2023-06-11T01:03:45.313Z,86.38
2023-06-11T01:06:19.415Z,86.71
2023-06-11T01:08:46.594Z,86.79
2023-06-11T01:11:22.752Z,86.70
2023-06-11T01:13:50.218Z,86.79
2023-06-11T01:16:33.993Z,86.58
2023-06-11T01:19:13.303Z,87.32
2023-06-11T01:21:46.270Z,88.08
2023-06-11T01:24:45.188Z,86.75
2023-06-11T01:27:27.637Z,87.90
2023-06-11T01:29:56.244Z,86.42
2023-06-11T01:32:27.258Z,87.54
2023-06-11T01:35:01.585Z,87.10
2023-06-11T01:37:30.717Z,86.33
2023-06-11T01:39:57.637Z,88.06
2023-06-11T01:42:24.299Z,85.89
2023-06-11T01:44:50.990Z,86.21
2023-06-11T01:47:17.621Z,86.12
2023-06-11T01:49:44.430Z,86.35
2023-06-11T01:52:11.093Z,86.82
2023-06-11T01:54:37.719Z,86.11
2023-06-11T01:57:04.542Z,86.51
2023-06-11T01:59:31.335Z,86.52
2023-06-11T02:01:58.049Z,89.19
2023-06-11T02:04:24.692Z,85.79
2023-06-11T02:06:51.726Z,85.86
2023-06-11T02:09:18.648Z,85.46
2023-06-11T02:11:47.963Z,85.25
2023-06-11T02:14:14.626Z,86.08
2023-06-11T02:16:41.318Z,85.59
2023-06-11T02:19:08.693Z,84.83
2023-06-11T02:21:35.600Z,85.62
2023-06-11T02:24:03.105Z,85.85
2023-06-11T02:26:29.892Z,86.49
2023-06-11T02:28:56.481Z,85.53
2023-06-11T02:31:23.106Z,85.55
2023-06-11T02:33:49.822Z,85.40
2023-06-11T02:36:16.479Z,85.16
2023-06-11T02:38:43.097Z,85.13
2023-06-11T02:41:09.716Z,88.31
2023-06-11T02:43:36.337Z,86.13
2023-06-11T02:46:02.986Z,85.37
2023-06-11T02:48:29.600Z,85.39
2023-06-11T02:50:56.341Z,85.47
2023-06-11T02:53:23.009Z,85.25
2023-06-11T02:55:49.623Z,86.22
2023-06-11T02:58:16.374Z,85.44
2023-06-11T03:00:43.389Z,85.94
2023-06-11T03:03:10.055Z,85.16
2023-06-11T03:05:36.693Z,85.46
2023-06-11T03:08:03.291Z,84.60
2023-06-11T03:10:29.944Z,85.46
2023-06-11T03:12:57.007Z,85.59
2023-06-11T03:15:23.855Z,84.97
2023-06-11T03:17:50.684Z,84.34
2023-06-11T03:20:17.365Z,86.51
2023-06-11T03:22:44.004Z,85.44
2023-06-11T03:25:10.871Z,86.45
2023-06-11T03:27:38.536Z,85.36
2023-06-11T03:30:06.831Z,84.42
2023-06-11T03:32:33.562Z,84.35
2023-06-11T03:35:00.546Z,87.09
2023-06-11T03:37:27.226Z,84.95
2023-06-11T03:39:53.916Z,85.83
2023-06-11T03:42:20.572Z,84.73
2023-06-11T03:44:47.252Z,85.07
2023-06-11T03:47:13.984Z,84.75
2023-06-11T03:49:40.763Z,85.84
2023-06-11T03:52:08.163Z,85.38
2023-06-11T03:54:34.890Z,84.91
2023-06-11T03:57:01.537Z,84.43
2023-06-11T03:59:28.117Z,85.92
2023-06-11T04:01:54.806Z,85.44
2023-06-11T04:04:21.564Z,84.40
2023-06-11T04:06:48.221Z,84.22
2023-06-11T04:09:14.873Z,83.57
2023-06-11T04:11:41.469Z,84.11
2023-06-11T04:14:08.155Z,83.25
2023-06-11T04:16:34.958Z,84.01
2023-06-11T04:19:01.584Z,84.34
2023-06-11T04:21:28.281Z,84.41
2023-06-11T04:23:54.910Z,83.94
2023-06-11T04:26:24.805Z,83.90
2023-06-11T04:28:51.636Z,83.36
2023-06-11T04:31:18.440Z,83.41
2023-06-11T04:33:47.131Z,83.21
2023-06-11T04:36:13.795Z,83.48
2023-06-11T04:38:45.867Z,83.12
2023-06-11T04:41:13.006Z,83.72
2023-06-11T04:43:41.671Z,83.72
2023-06-11T04:46:08.287Z,82.74
2023-06-11T04:48:36.072Z,84.42
2023-06-11T04:51:03.356Z,82.23
2023-06-11T04:53:30.991Z,82.22
2023-06-11T04:56:01.110Z,83.01
2023-06-11T04:58:30.817Z,83.87
2023-06-11T05:00:58.285Z,81.78
2023-06-11T05:03:27.972Z,81.52
2023-06-11T05:05:56.023Z,81.79
2023-06-11T05:08:25.695Z,81.42
2023-06-11T05:10:57.530Z,81.67
2023-06-11T05:13:26.317Z,80.79
2023-06-11T05:15:54.080Z,81.14
2023-06-11T05:18:20.944Z,81.43
2023-06-11T05:20:49.741Z,81.15
2023-06-11T05:23:16.916Z,81.04
2023-06-11T05:25:51.200Z,80.40
2023-06-11T05:28:18.249Z,80.97
2023-06-11T05:30:46.796Z,79.81
2023-06-11T05:33:18.064Z,78.73
2023-06-11T05:35:45.477Z,80.66
2023-06-11T05:38:12.069Z,80.75
2023-06-11T05:40:39.066Z,78.27
2023-06-11T05:43:06.893Z,80.03
2023-06-11T05:45:34.200Z,78.38
2023-06-11T05:48:02.173Z,77.07
2023-06-11T05:50:28.971Z,77.40
2023-06-11T05:52:55.723Z,78.07
2023-06-11T05:55:22.322Z,79.94
2023-06-11T05:57:48.964Z,77.98
2023-06-11T06:00:15.974Z,80.38
2023-06-11T06:02:42.882Z,78.38
2023-06-11T06:05:09.963Z,79.72
2023-06-11T06:07:37.080Z,79.17
2023-06-11T06:10:04.016Z,80.07
2023-06-11T06:12:30.903Z,77.33
2023-06-11T06:14:57.501Z,76.89
2023-06-11T06:17:24.301Z,78.08
2023-06-11T06:19:51.168Z,77.96
2023-06-11T06:22:19.537Z,76.80
2023-06-11T06:24:46.227Z,77.94
2023-06-11T06:27:12.959Z,77.83
2023-06-11T06:29:42.668Z,77.60
2023-06-11T06:32:09.763Z,78.93
2023-06-11T06:34:36.930Z,77.72
2023-06-11T06:37:03.852Z,76.58
2023-06-11T06:39:30.878Z,76.85
2023-06-11T06:41:57.522Z,74.81
2023-06-11T06:44:24.124Z,75.78
2023-06-11T06:46:51.108Z,73.34
2023-06-11T06:49:17.808Z,73.77
2023-06-11T06:51:44.441Z,72.05
2023-06-11T06:54:11.087Z,71.82
2023-06-11T06:56:38.004Z,72.13
2023-06-11T06:59:04.627Z,71.33
2023-06-11T07:01:31.985Z,70.66
2023-06-11T07:03:58.636Z,69.47
2023-06-11T07:06:27.817Z,68.75
2023-06-11T07:08:54.733Z,69.17
2023-06-11T07:11:23.229Z,69.77
2023-06-11T07:13:50.125Z,68.99
2023-06-11T07:16:17.039Z,68.75
2023-06-11T07:18:43.696Z,69.31
2023-06-11T07:21:10.897Z,67.73
2023-06-11T07:23:37.840Z,68.00
2023-06-11T07:26:04.652Z,66.46
2023-06-11T07:28:31.327Z,67.78
2023-06-11T07:30:58.092Z,68.17
2023-06-11T07:33:24.805Z,68.66
2023-06-11T07:35:53.803Z,67.75
2023-06-11T07:38:20.450Z,66.80
2023-06-11T07:40:48.156Z,67.02
2023-06-11T07:43:14.794Z,65.88
2023-06-11T07:45:41.439Z,66.39
2023-06-11T07:48:08.866Z,64.22
2023-06-11T07:50:36.042Z,65.26
2023-06-11T07:53:03.632Z,64.25
2023-06-11T07:55:30.664Z,64.12
2023-06-11T07:57:57.343Z,63.58
2023-06-11T08:00:24.002Z,63.66
2023-06-11T08:02:53.446Z,62.03
2023-06-11T08:05:20.578Z,62.15
2023-06-11T08:07:48.603Z,62.13
2023-06-11T08:10:15.919Z,62.94
2023-06-11T08:12:42.829Z,62.58
2023-06-11T08:15:11.327Z,62.85
2023-06-11T08:17:39.158Z,63.47
2023-06-11T08:20:08.666Z,62.90
2023-06-11T08:22:35.755Z,61.27
2023-06-11T08:25:02.431Z,61.24
2023-06-11T08:27:29.068Z,60.82
2023-06-11T08:29:55.696Z,61.65
2023-06-11T08:32:22.438Z,61.91
2023-06-11T08:34:49.230Z,61.09
2023-06-11T08:37:16.456Z,60.01
2023-06-11T08:39:43.159Z,58.98
2023-06-11T08:42:09.952Z,59.54
2023-06-11T08:44:36.947Z,59.06
2023-06-11T08:47:05.240Z,59.17
2023-06-11T08:49:32.422Z,59.55
2023-06-11T08:52:04.832Z,59.65
2023-06-11T08:54:33.021Z,56.98
2023-06-11T08:57:00.702Z,57.74
2023-06-11T08:59:27.315Z,59.07
2023-06-11T09:01:54.087Z,58.59
2023-06-11T09:04:24.320Z,55.89
2023-06-11T09:06:52.685Z,57.81
2023-06-11T09:09:19.865Z,56.19
2023-06-11T09:11:47.256Z,57.59
2023-06-11T09:14:13.922Z,56.73
2023-06-11T09:16:45.844Z,55.94
2023-06-11T09:19:17.709Z,56.69
2023-06-11T09:21:55.923Z,56.00
2023-06-11T09:24:24.671Z,56.30
2023-06-11T09:26:56.990Z,57.04
2023-06-11T09:29:24.833Z,55.80
2023-06-11T09:32:23.903Z,57.27
2023-06-11T09:34:57.085Z,56.02
2023-06-11T09:37:24.303Z,54.52
2023-06-11T09:39:51.529Z,55.30
2023-06-11T09:42:28.103Z,52.69
2023-06-11T09:45:02.150Z,52.66
2023-06-11T09:47:31.605Z,50.89
2023-06-11T09:50:02.479Z,51.86
2023-06-11T09:52:29.604Z,50.52
2023-06-11T09:54:56.676Z,51.01
2023-06-11T09:57:23.434Z,51.71
2023-06-11T09:59:50.259Z,50.77
2023-06-11T10:02:17.086Z,51.58
2023-06-11T10:04:43.931Z,51.65
2023-06-11T10:07:11.576Z,52.41
2023-06-11T10:09:39.949Z,51.63
2023-06-11T10:12:08.212Z,51.08
2023-06-11T10:14:38.264Z,49.91
2023-06-11T10:17:09.457Z,50.54
2023-06-11T10:19:39.690Z,50.73
2023-06-11T10:22:09.721Z,50.36
2023-06-11T10:24:36.812Z,49.58
2023-06-11T10:27:15.491Z,50.38
2023-06-11T10:29:42.255Z,50.94
2023-06-11T10:32:35.404Z,50.83
2023-06-11T10:35:05.921Z,52.67
2023-06-11T10:37:36.610Z,51.90
2023-06-11T10:40:06.478Z,53.78
2023-06-11T10:42:39.065Z,53.72
2023-06-11T10:45:15.057Z,52.52
2023-06-11T10:47:46.604Z,51.65
2023-06-11T10:50:15.993Z,51.53
2023-06-11T10:52:55.668Z,51.66
2023-06-11T10:55:23.380Z,50.29
2023-06-11T10:57:53.880Z,51.21
2023-06-11T11:00:21.125Z,51.31
2023-06-11T11:02:48.985Z,53.34
2023-06-11T11:05:15.802Z,52.57
2023-06-11T11:07:45.879Z,51.96
2023-06-11T11:10:20.156Z,51.79
2023-06-11T11:12:48.189Z,52.26
2023-06-11T11:15:16.039Z,53.90
2023-06-11T11:17:46.315Z,53.50
2023-06-11T11:20:15.641Z,54.44
2023-06-11T11:22:42.373Z,56.49
2023-06-11T11:25:09.439Z,54.48
2023-06-11T11:27:38.917Z,53.47
2023-06-11T11:30:06.432Z,51.96
2023-06-11T11:32:35.558Z,53.16
2023-06-11T11:35:04.580Z,52.25
2023-06-11T11:37:31.822Z,53.28
2023-06-11T11:40:08.192Z,51.58
2023-06-11T11:42:50.974Z,52.04
2023-06-11T11:45:19.359Z,51.98
2023-06-11T11:47:52.070Z,51.02
2023-06-11T11:50:24.775Z,51.46
2023-06-11T11:53:13.240Z,52.68
2023-06-11T11:55:56.090Z,51.40
2023-06-11T11:58:27.718Z,52.98
2023-06-11T12:00:59.225Z,55.06
2023-06-11T12:03:27.792Z,52.79
2023-06-11T12:06:01.764Z,51.89
2023-06-11T12:08:31.807Z,52.91
2023-06-11T12:10:59.320Z,53.82
2023-06-11T12:13:26.376Z,54.97
2023-06-11T12:15:53.645Z,53.97
2023-06-11T12:18:20.953Z,55.72
2023-06-11T12:20:47.939Z,55.83
2023-06-11T12:23:15.485Z,56.26
2023-06-11T12:25:43.404Z,57.74
2023-06-11T12:28:10.006Z,57.20
2023-06-11T12:30:36.914Z,56.40
2023-06-11T12:33:03.706Z,55.72
2023-06-11T12:35:31.581Z,54.61
2023-06-11T12:37:58.827Z,53.85
2023-06-11T12:40:25.815Z,54.56
2023-06-11T12:42:58.075Z,53.29
2023-06-11T12:45:27.923Z,53.32
2023-06-11T12:47:54.897Z,54.09
2023-06-11T12:50:25.132Z,53.42
2023-06-11T12:52:53.338Z,53.39
2023-06-11T12:55:20.680Z,53.12
2023-06-11T12:57:47.427Z,53.16
2023-06-11T13:00:14.914Z,53.17
2023-06-11T13:02:42.512Z,52.89
2023-06-11T13:05:09.556Z,51.99
2023-06-11T13:07:36.370Z,52.85
2023-06-11T13:10:03.755Z,52.58
2023-06-11T13:12:30.856Z,52.30
2023-06-11T13:14:57.556Z,52.83
2023-06-11T13:17:24.145Z,50.92
2023-06-11T13:19:55.815Z,50.08
2023-06-11T13:22:23.136Z,51.57
2023-06-11T13:24:50.309Z,52.73
2023-06-11T13:27:17.252Z,51.84
2023-06-11T13:29:43.941Z,51.41
2023-06-11T13:32:10.629Z,48.83
2023-06-11T13:34:37.480Z,49.75
2023-06-11T13:37:04.563Z,47.99
2023-06-11T13:39:32.812Z,46.30
2023-06-11T13:41:59.491Z,46.11
2023-06-11T13:44:26.144Z,45.42
2023-06-11T13:46:52.845Z,44.90
2023-06-11T13:49:19.581Z,45.52
2023-06-11T13:51:46.194Z,45.50
2023-06-11T13:54:12.791Z,46.48
2023-06-11T13:56:40.556Z,45.77
2023-06-11T13:59:07.546Z,45.46
2023-06-11T14:01:34.283Z,45.68
2023-06-11T14:04:01.049Z,45.33
2023-06-11T14:06:29.014Z,45.31
2023-06-11T14:08:57.547Z,44.42
2023-06-11T14:11:27.048Z,43.65
2023-06-11T14:13:53.679Z,44.00
2023-06-11T14:16:20.416Z,44.03
2023-06-11T14:18:47.121Z,45.74
2023-06-11T14:21:13.753Z,45.70
2023-06-11T14:23:40.537Z,46.07
2023-06-11T14:26:07.299Z,46.24
2023-06-11T14:28:33.967Z,47.22
2023-06-11T14:31:01.092Z,47.37
2023-06-11T14:33:27.857Z,48.46
2023-06-11T14:35:54.728Z,48.11
2023-06-11T14:38:21.442Z,48.36
2023-06-11T14:40:48.433Z,48.49
2023-06-11T14:43:15.426Z,49.45
2023-06-11T14:45:42.220Z,49.29
2023-06-11T14:48:09.055Z,48.97
2023-06-11T14:50:35.934Z,49.08
2023-06-11T14:53:02.649Z,49.05
2023-06-11T14:55:29.237Z,49.22
2023-06-11T14:57:55.950Z,49.69
2023-06-11T15:00:22.804Z,49.35
2023-06-11T15:02:49.609Z,49.41
2023-06-11T15:05:16.552Z,49.41
2023-06-11T15:07:43.354Z,49.97
2023-06-11T15:10:11.738Z,49.51
2023-06-11T15:12:38.814Z,49.20
2023-06-11T15:15:06.464Z,49.75
2023-06-11T15:17:36.832Z,49.23
2023-06-11T15:20:06.181Z,49.58
2023-06-11T15:22:36.208Z,49.35
2023-06-11T15:25:03.588Z,48.95
2023-06-11T15:27:30.183Z,50.28
2023-06-11T15:29:56.896Z,50.43
2023-06-11T15:32:23.579Z,50.23
2023-06-11T15:34:50.605Z,49.07
2023-06-11T15:37:18.223Z,49.03
2023-06-11T15:39:53.841Z,48.62
2023-06-11T15:42:20.650Z,48.87
2023-06-11T15:44:49.509Z,49.33
2023-06-11T15:47:17.021Z,49.20
2023-06-11T15:49:43.723Z,49.74
2023-06-11T15:52:10.523Z,50.07
2023-06-11T15:54:37.280Z,50.15
2023-06-11T15:57:04.783Z,49.28
2023-06-11T15:59:32.514Z,49.20
2023-06-11T16:01:59.394Z,49.67
2023-06-11T16:04:26.867Z,49.48
2023-06-11T16:06:53.798Z,49.86
2023-06-11T16:09:20.467Z,49.56
2023-06-11T16:11:47.078Z,50.07
2023-06-11T16:14:16.109Z,50.62
2023-06-11T16:16:43.316Z,50.56
2023-06-11T16:19:09.934Z,49.81
2023-06-11T16:21:37.887Z,49.15
2023-06-11T16:24:05.648Z,48.99
2023-06-11T16:26:32.554Z,48.96
2023-06-11T16:28:59.200Z,49.85
2023-06-11T16:31:26.377Z,50.71
2023-06-11T16:33:58.741Z,49.82
2023-06-11T16:36:26.483Z,50.42
2023-06-11T16:38:53.180Z,50.19
2023-06-11T16:41:19.875Z,50.16
2023-06-11T16:43:46.484Z,50.41
2023-06-11T16:46:13.098Z,50.93
2023-06-11T16:48:39.928Z,50.28
2023-06-11T16:51:06.640Z,51.26
2023-06-11T16:53:33.315Z,51.32
2023-06-11T16:56:00.000Z,51.60
2023-06-11T16:58:26.668Z,51.02
2023-06-11T17:00:53.309Z,51.62
2023-06-11T17:03:20.089Z,51.28
2023-06-11T17:05:46.883Z,51.46
2023-06-11T17:08:14.325Z,51.14
2023-06-11T17:10:41.055Z,52.21
2023-06-11T17:13:07.922Z,51.54
2023-06-11T17:15:34.569Z,51.39
2023-06-11T17:18:01.404Z,51.79
2023-06-11T17:20:28.171Z,51.56
2023-06-11T17:22:55.109Z,51.64
2023-06-11T17:25:24.881Z,51.94
2023-06-11T17:27:51.694Z,52.36
2023-06-11T17:30:18.424Z,52.55
2023-06-11T17:32:45.046Z,52.14
2023-06-11T17:35:11.988Z,52.41
2023-06-11T17:37:38.850Z,52.47
2023-06-11T17:40:07.249Z,52.32
2023-06-11T17:42:34.019Z,53.09
2023-06-11T17:45:01.006Z,53.20
2023-06-11T17:47:27.760Z,53.35
2023-06-11T17:49:54.572Z,53.01
2023-06-11T17:52:21.259Z,53.78
2023-06-11T17:54:48.036Z,54.25
2023-06-11T17:57:14.778Z,54.82
2023-06-11T17:59:41.475Z,54.71
2023-06-11T18:02:08.295Z,54.42
2023-06-11T18:04:35.577Z,55.00
2023-06-11T18:07:02.279Z,54.61
2023-06-11T18:09:28.899Z,54.56
2023-06-11T18:11:55.605Z,54.69
2023-06-11T18:14:25.555Z,54.52
2023-06-11T18:16:53.489Z,54.70
2023-06-11T18:19:21.305Z,54.57
2023-06-11T18:21:48.087Z,54.86
2023-06-11T18:24:15.158Z,54.72
2023-06-11T18:26:41.946Z,55.45
2023-06-11T18:29:08.603Z,55.36
2023-06-11T18:31:35.807Z,55.58
2023-06-11T18:34:02.438Z,55.65
2023-06-11T18:36:29.029Z,55.99
2023-06-11T18:38:55.713Z,56.31
2023-06-11T18:41:22.723Z,55.73
2023-06-11T18:43:49.419Z,55.43
2023-06-11T18:46:16.113Z,55.38
2023-06-11T18:48:42.796Z,55.46
2023-06-11T18:51:09.447Z,55.62
2023-06-11T18:53:36.128Z,55.40
2023-06-11T18:56:02.815Z,55.43
2023-06-11T18:58:29.456Z,55.75
2023-06-11T19:00:56.112Z,55.70
2023-06-11T19:03:22.827Z,56.14
2023-06-11T19:05:50.797Z,56.33
2023-06-11T19:08:21.332Z,56.32
2023-06-11T19:10:48.554Z,56.68
2023-06-11T19:13:17.580Z,56.64
2023-06-11T19:15:45.731Z,57.48
2023-06-11T19:18:13.720Z,56.91
2023-06-11T19:20:41.451Z,57.17
2023-06-11T19:23:08.855Z,57.48
2023-06-11T19:25:35.693Z,58.43
2023-06-11T19:28:02.609Z,58.28
2023-06-11T19:30:29.331Z,58.46
2023-06-11T19:32:56.147Z,58.55
2023-06-11T19:35:23.036Z,58.68
2023-06-11T19:37:49.864Z,58.76
2023-06-11T19:40:16.607Z,59.12
2023-06-11T19:42:43.269Z,59.59
2023-06-11T19:45:11.079Z,59.51
2023-06-11T19:47:38.243Z,59.68
2023-06-11T19:50:06.098Z,59.62
2023-06-11T19:52:32.866Z,60.60
2023-06-11T19:54:59.666Z,60.69
2023-06-11T19:57:26.283Z,61.90
2023-06-11T19:59:53.448Z,61.44
2023-06-11T20:02:20.699Z,61.82
2023-06-11T20:04:47.565Z,61.47
2023-06-11T20:07:17.101Z,61.79
2023-06-11T20:09:46.383Z,61.62
2023-06-11T20:12:13.226Z,61.58
2023-06-11T20:14:39.857Z,61.60
2023-06-11T20:17:06.616Z,61.79
2023-06-11T20:19:36.671Z,61.97
2023-06-11T20:22:06.684Z,61.75
2023-06-11T20:24:33.680Z,62.38
2023-06-11T20:27:00.394Z,61.99
2023-06-11T20:29:27.123Z,62.34
2023-06-11T20:31:53.810Z,62.81
2023-06-11T20:34:20.769Z,63.57
2023-06-11T20:36:50.933Z,62.65
2023-06-11T20:39:17.912Z,63.58
2023-06-11T20:41:44.574Z,64.60
2023-06-11T20:44:11.319Z,64.87
2023-06-11T20:46:38.159Z,64.77
2023-06-11T20:49:04.935Z,65.26
2023-06-11T20:51:31.713Z,64.53
2023-06-11T20:53:58.407Z,64.06
2023-06-11T20:56:25.143Z,63.83
2023-06-11T20:58:51.780Z,63.47
2023-06-11T21:01:18.450Z,63.36
2023-06-11T21:03:45.208Z,63.01
2023-06-11T21:06:12.022Z,63.00
2023-06-11T21:08:38.665Z,62.31
2023-06-11T21:11:05.465Z,62.30
2023-06-11T21:13:32.061Z,62.04
2023-06-11T21:15:58.745Z,61.50
2023-06-11T21:18:25.372Z,61.94
2023-06-11T21:20:52.170Z,61.23
2023-06-11T21:23:21.182Z,60.92
2023-06-11T21:25:48.841Z,61.05
2023-06-11T21:28:15.763Z,60.82
2023-06-11T21:30:43.866Z,61.17
2023-06-11T21:33:10.637Z,61.15
2023-06-11T21:35:37.294Z,61.38
2023-06-11T21:38:03.910Z,61.09
2023-06-11T21:40:30.735Z,61.04
2023-06-11T21:42:57.381Z,61.65
2023-06-11T21:45:23.964Z,61.48
2023-06-11T21:47:50.735Z,61.56
2023-06-11T21:50:17.679Z,61.63
2023-06-11T21:52:44.402Z,61.32
2023-06-11T21:55:11.059Z,61.37
2023-06-11T21:57:37.680Z,61.54
2023-06-11T22:00:13.355Z,61.61
2023-06-11T22:02:44.100Z,61.92
2023-06-11T22:05:13.538Z,61.59
2023-06-11T22:07:40.686Z,62.12
2023-06-11T22:10:09.632Z,61.91
2023-06-11T22:12:42.899Z,61.62
2023-06-11T22:15:11.457Z,61.72
2023-06-11T22:17:40.726Z,62.11
2023-06-11T22:20:09.529Z,62.13
2023-06-11T22:22:38.360Z,62.16
2023-06-11T22:25:06.246Z,62.35
2023-06-11T22:27:33.460Z,62.64
2023-06-11T22:30:00.360Z,62.91
2023-06-11T22:32:27.621Z,63.41
2023-06-11T22:34:54.355Z,63.12
2023-06-11T22:37:20.995Z,63.56
2023-06-11T22:39:47.650Z,63.99
2023-06-11T22:42:14.279Z,63.96
2023-06-11T22:44:40.957Z,64.82
2023-06-11T22:47:08.937Z,64.83
2023-06-11T22:49:35.665Z,64.88
2023-06-11T22:52:02.361Z,65.08
2023-06-11T22:54:29.148Z,64.93
2023-06-11T22:56:56.082Z,64.41
2023-06-11T22:59:22.750Z,64.01
2023-06-11T23:01:49.901Z,64.74
2023-06-11T23:04:17.173Z,64.23
2023-06-11T23:06:47.432Z,64.16
2023-06-11T23:09:15.577Z,63.99
2023-06-11T23:11:42.755Z,64.48
2023-06-11T23:14:10.514Z,63.96
2023-06-11T23:16:41.755Z,64.02
2023-06-11T23:19:08.883Z,64.32
2023-06-11T23:21:41.504Z,64.39
2023-06-11T23:24:08.476Z,64.85
2023-06-11T23:26:35.128Z,65.10
2023-06-11T23:29:02.081Z,65.93
2023-06-11T23:31:31.375Z,66.22
2023-06-11T23:33:58.459Z,66.23
2023-06-11T23:36:27.147Z,66.38
2023-06-11T23:38:53.752Z,66.69
2023-06-11T23:41:20.495Z,66.49
2023-06-11T23:43:47.139Z,66.66
2023-06-11T23:46:13.852Z,66.97
2023-06-11T23:48:40.573Z,67.17
2023-06-11T23:51:09.942Z,67.04
2023-06-11T23:53:37.264Z,67.16
2023-06-11T23:56:04.012Z,66.74
2023-06-11T23:58:30.823Z,66.92
